Diane G — DIANEG — position and weather

sailwx.info

Track history (hours):
 
Tides and Currents Weather Stations Pressure Air Temp Water Temp Dewpoint Dewpoint Depression Visibility Wind Speed Wind Dir Waves Ship Positions

Diane G

Last reported at 2015-Jan-27 22:26 UTC. Time now 2015-Jan-30 15:31 UTC.
Position N 33°26' W 119°42'.

Length 35 m; draft 2.5 m.

Type: Military. MMSI: 369970281.

Date/timePositionNaut miles runAvg speedWind from/ knotsBaromVisibWave heightAir tempDewpointWater temp
2015-Jan-27 22:26N 33°26' W 119°42'  
2015-Jan-22 11:05N 33°42' W 118°37'5 8.8
2015-Jan-22 10:33N 33°38' W 118°33'9 8.8
2015-Jan-22 09:33N 33°32' W 118°26'9 8.9
2015-Jan-22 08:33N 33°26' W 118°18'13 9.1
2015-Jan-22 07:11N 33°18' W 118°07'6 9.3
2015-Jan-22 06:33N 33°14' W 118°01'9 8.8
2015-Jan-22 05:33N 33°08' W 117°53'9 9.2
2015-Jan-22 04:33N 33°02' W 117°45'9 9.2
2015-Jan-22 03:34N 32°55' W 117°39'9 8.6
2015-Jan-22 02:33N 32°49' W 117°31'8 8.3
2015-Jan-22 01:34N 32°43' W 117°24'9 8.3
2015-Jan-22 00:29N 32°37' W 117°16'7 7.5
2015-Jan-21 23:33N 32°43' W 117°12'5 6.6
2015-Jan-21 22:50N 32°40' W 117°08'0 0.1
2015-Jan-21 22:46N 32°40' W 117°08'0 0.1
2015-Jan-21 22:33N 32°40' W 117°08'0 0.0
2015-Jan-21 21:33N 32°40' W 117°08'0 0.1
2015-Jan-21 20:33N 32°40' W 117°08'1 0.6
2015-Jan-21 19:33N 32°40' W 117°08'1 0.2
2015-Jan-21 16:34N 32°40' W 117°08'1 1.5
2015-Jan-21 15:33N 32°41' W 117°09'3 2.5
2015-Jan-21 14:31N 32°43' W 117°11'0 0.0
2015-Jan-21 13:31N 32°43' W 117°11'0 0.0
2015-Jan-21 12:31N 32°43' W 117°11'0 0.0
2015-Jan-21 11:31N 32°43' W 117°11'0 0.1
2015-Jan-21 10:31N 32°43' W 117°11'0 0.0
2015-Jan-21 09:31N 32°43' W 117°11'0 0.0
2015-Jan-21 08:31N 32°43' W 117°11'0 0.0
2015-Jan-21 07:31N 32°43' W 117°11'0 0.0
2015-Jan-21 06:31N 32°43' W 117°11'0 0.1
2015-Jan-21 05:31N 32°43' W 117°11'0 0.0
2015-Jan-21 04:31N 32°43' W 117°11'0 0.0
2015-Jan-21 03:31N 32°43' W 117°11'0 0.0
2015-Jan-21 02:31N 32°43' W 117°11'3 3.1
2015-Jan-21 01:33N 32°41' W 117°14'5 4.3
2015-Jan-21 00:26N 32°37' W 117°17'0 0.4
2015-Jan-20 23:32N 32°37' W 117°17'0 0.2
2015-Jan-20 22:33N 32°37' W 117°17'2 2.0
2015-Jan-20 21:33N 32°37' W 117°14'3 3.3
2015-Jan-20 20:33N 32°39' W 117°11'0 0.3
2015-Jan-20 19:33N 32°39' W 117°11'4 4.4
2015-Jan-20 18:33N 32°37' W 117°16'9 9.3
2015-Jan-20 17:33N 32°44' W 117°23'9 9.2
2015-Jan-20 16:33N 32°51' W 117°31'9 8.9
2015-Jan-20 15:33N 32°56' W 117°39'9 8.6
2015-Jan-20 14:33N 33°01' W 117°48'8 8.3
2015-Jan-20 13:33N 33°06' W 117°56'10 8.2
2015-Jan-20 12:20N 33°14' W 118°04'7 8.2
2015-Jan-20 11:28N 33°19' W 118°10'8 8.3
2015-Jan-20 10:33N 33°25' W 118°15'8 8.4
2015-Jan-20 09:33N 33°30' W 118°23'8 8.4
2015-Jan-20 08:33N 33°36' W 118°31'  
Track history (hours):
 
Tides and Currents Weather Stations Pressure Air Temp Water Temp Dewpoint Dewpoint Depression Visibility Wind Speed Wind Dir Waves Ship Positions

Diane G

Last reported at 2015-Jan-27 22:26 UTC. Time now 2015-Jan-30 15:31 UTC.
Position N 33°26' W 119°42'.

Length 35 m; draft 2.5 m.

Type: Military. MMSI: 369970281.

Date/timePositionNaut miles runAvg speedWind from/ knotsBaromVisibWave heightAir tempDewpointWater temp
2015-Jan-27 22:26N 33°26' W 119°42'  
2015-Jan-22 11:05N 33°42' W 118°37'5 8.8
2015-Jan-22 10:33N 33°38' W 118°33'9 8.8
2015-Jan-22 09:33N 33°32' W 118°26'9 8.9
2015-Jan-22 08:33N 33°26' W 118°18'13 9.1
2015-Jan-22 07:11N 33°18' W 118°07'6 9.3
2015-Jan-22 06:33N 33°14' W 118°01'9 8.8
2015-Jan-22 05:33N 33°08' W 117°53'9 9.2
2015-Jan-22 04:33N 33°02' W 117°45'9 9.2
2015-Jan-22 03:34N 32°55' W 117°39'9 8.6
2015-Jan-22 02:33N 32°49' W 117°31'8 8.3
2015-Jan-22 01:34N 32°43' W 117°24'9 8.3
2015-Jan-22 00:29N 32°37' W 117°16'7 7.5
2015-Jan-21 23:33N 32°43' W 117°12'5 6.6
2015-Jan-21 22:50N 32°40' W 117°08'0 0.1
2015-Jan-21 22:46N 32°40' W 117°08'0 0.1
2015-Jan-21 22:33N 32°40' W 117°08'0 0.0
2015-Jan-21 21:33N 32°40' W 117°08'0 0.1
2015-Jan-21 20:33N 32°40' W 117°08'1 0.6
2015-Jan-21 19:33N 32°40' W 117°08'1 0.2
2015-Jan-21 16:34N 32°40' W 117°08'1 1.5
2015-Jan-21 15:33N 32°41' W 117°09'3 2.5
2015-Jan-21 14:31N 32°43' W 117°11'0 0.0
2015-Jan-21 13:31N 32°43' W 117°11'0 0.0
2015-Jan-21 12:31N 32°43' W 117°11'0 0.0
2015-Jan-21 11:31N 32°43' W 117°11'0 0.1
2015-Jan-21 10:31N 32°43' W 117°11'0 0.0
2015-Jan-21 09:31N 32°43' W 117°11'0 0.0
2015-Jan-21 08:31N 32°43' W 117°11'0 0.0
2015-Jan-21 07:31N 32°43' W 117°11'0 0.0
2015-Jan-21 06:31N 32°43' W 117°11'0 0.1
2015-Jan-21 05:31N 32°43' W 117°11'0 0.0
2015-Jan-21 04:31N 32°43' W 117°11'0 0.0
2015-Jan-21 03:31N 32°43' W 117°11'0 0.0
2015-Jan-21 02:31N 32°43' W 117°11'3 3.1
2015-Jan-21 01:33N 32°41' W 117°14'5 4.3
2015-Jan-21 00:26N 32°37' W 117°17'0 0.4
2015-Jan-20 23:32N 32°37' W 117°17'0 0.2
2015-Jan-20 22:33N 32°37' W 117°17'2 2.0
2015-Jan-20 21:33N 32°37' W 117°14'3 3.3
2015-Jan-20 20:33N 32°39' W 117°11'0 0.3
2015-Jan-20 19:33N 32°39' W 117°11'4 4.4
2015-Jan-20 18:33N 32°37' W 117°16'9 9.3
2015-Jan-20 17:33N 32°44' W 117°23'9 9.2
2015-Jan-20 16:33N 32°51' W 117°31'9 8.9
2015-Jan-20 15:33N 32°56' W 117°39'9 8.6
2015-Jan-20 14:33N 33°01' W 117°48'8 8.3
2015-Jan-20 13:33N 33°06' W 117°56'10 8.2
2015-Jan-20 12:20N 33°14' W 118°04'7 8.2
2015-Jan-20 11:28N 33°19' W 118°10'8 8.3
2015-Jan-20 10:33N 33°25' W 118°15'8 8.4
2015-Jan-20 09:33N 33°30' W 118°23'8 8.4
2015-Jan-20 08:33N 33°36' W 118°31'  

Dump ship's entire track history